Time;durP1;ratioP1;P1;durP2;ratioP2;P2;SDS_P1;SDS_P2;PMS_P1;PMS_P2;Temp;Humidity;BMP_temperature;BMP_pressure;BME280_temperature;BME280_humidity;BME280_pressure;Samples;Min_cycle;Max_cycle;Signal;HPM_P1;HPM_P2
2022/03/01 00:02:16;;;;;;;58.57;21.50;;;;;;;-2.67;67.50;102205.06;4993494;28;20251;-66
2022/03/01 00:04:43;;;;;;;58.27;21.43;;;;;;;-2.56;67.56;102202.31;4990690;28;20242;-65
2022/03/01 00:07:10;;;;;;;70.80;23.00;;;;;;;-2.54;67.56;102195.34;4991539;28;20226;-64
2022/03/01 00:09:36;;;;;;;65.87;24.47;;;;;;;-2.58;67.49;102191.88;4994545;28;20227;-63
2022/03/01 00:12:04;;;;;;;61.37;20.90;;;;;;;-2.67;67.73;102179.00;4993948;28;21220;-66
2022/03/01 00:14:30;;;;;;;68.00;22.37;;;;;;;-2.60;67.94;102182.38;4993558;28;20246;-64
2022/03/01 00:16:57;;;;;;;64.37;21.73;;;;;;;-2.55;67.35;102178.84;4994038;28;20271;-64
2022/03/01 00:19:23;;;;;;;61.13;21.17;;;;;;;-2.52;67.76;102177.09;4346042;28;20247;-65
2022/03/01 00:21:50;;;;;;;53.77;20.80;;;;;;;-2.61;67.88;102181.50;4175188;28;20320;-65
2022/03/01 00:24:16;;;;;;;58.63;20.83;;;;;;;-2.58;67.64;102184.06;4168141;28;20375;-64
2022/03/01 00:26:44;;;;;;;56.07;20.30;;;;;;;-2.53;67.74;102183.16;4186833;28;20248;-64
2022/03/01 00:29:11;;;;;;;59.43;21.43;;;;;;;-2.50;67.66;102180.53;4186163;28;20717;-65
2022/03/01 00:31:37;;;;;;;52.00;20.10;;;;;;;-2.60;67.74;102183.25;4182371;28;20711;-65
2022/03/01 00:34:04;;;;;;;53.77;19.70;;;;;;;-2.53;68.25;102180.56;4175237;28;20316;-63
2022/03/01 00:36:31;;;;;;;65.00;20.77;;;;;;;-2.71;68.62;102179.03;4186274;28;20241;-64
2022/03/01 00:38:57;;;;;;;58.63;20.40;;;;;;;-2.72;68.97;102174.69;4181839;28;20291;-66
2022/03/01 00:41:24;;;;;;;57.47;19.70;;;;;;;-2.67;68.54;102173.78;4184788;28;21822;-63
2022/03/01 00:43:51;;;;;;;57.10;20.17;;;;;;;-2.64;68.13;102176.34;4179507;28;20246;-64
2022/03/01 00:46:17;;;;;;;59.37;20.90;;;;;;;-2.85;69.25;102179.19;4193325;28;20334;-65
2022/03/01 00:48:44;;;;;;;55.63;20.87;;;;;;;-2.71;68.98;102174.69;4190005;28;20231;-65
2022/03/01 00:51:11;;;;;;;59.03;20.20;;;;;;;-2.51;67.79;102176.19;4195909;28;21087;-65
2022/03/01 00:53:37;;;;;;;56.13;20.50;;;;;;;-2.54;67.97;102179.69;4183950;28;20233;-65
2022/03/01 00:56:04;;;;;;;58.97;20.60;;;;;;;-2.51;68.13;102168.38;4181973;28;20264;-66
2022/03/01 00:58:31;;;;;;;63.27;21.60;;;;;;;-2.59;68.60;102169.34;4183921;28;20225;-65
2022/03/01 01:00:58;;;;;;;57.83;21.30;;;;;;;-2.58;68.79;102181.47;4187406;28;20486;-65
2022/03/01 01:03:25;;;;;;;53.17;20.13;;;;;;;-2.63;69.05;102166.78;4184021;28;20232;-65
2022/03/01 01:05:51;;;;;;;58.43;20.97;;;;;;;-2.93;69.41;102170.59;4176842;28;20312;-65
2022/03/01 01:08:18;;;;;;;55.80;19.83;;;;;;;-2.89;69.87;102172.28;4168920;28;20369;-66
2022/03/01 01:10:45;;;;;;;49.87;19.73;;;;;;;-2.82;69.28;102168.72;4196152;28;21161;-65
2022/03/01 01:13:13;;;;;;;65.13;23.17;;;;;;;-2.91;69.22;102164.47;4179469;28;20260;-65
2022/03/01 01:15:40;;;;;;;53.90;21.37;;;;;;;-2.89;69.00;102161.88;4189894;28;20246;-64
2022/03/01 01:18:07;;;;;;;60.50;21.80;;;;;;;-2.87;69.14;102167.94;4188498;28;20710;-65
2022/03/01 01:20:33;;;;;;;61.10;21.50;;;;;;;-2.91;69.83;102159.25;4195852;28;21634;-66
2022/03/01 01:23:00;;;;;;;61.67;21.23;;;;;;;-3.06;70.25;102165.50;4190696;28;20435;-65
2022/03/01 01:25:26;;;;;;;58.20;20.30;;;;;;;-2.98;70.12;102163.66;4190674;28;20717;-67
2022/03/01 01:27:55;;;;;;;59.77;18.73;;;;;;;-2.88;69.67;102161.84;4203868;28;20316;-65
2022/03/01 01:30:24;;;;;;;62.23;21.13;;;;;;;-3.08;69.82;102163.78;4202480;28;23218;-66
2022/03/01 01:32:51;;;;;;;55.07;20.13;;;;;;;-3.31;70.74;102158.81;4199168;28;20238;-65
2022/03/01 01:35:21;;;;;;;56.47;20.10;;;;;;;-3.18;70.88;102157.81;4186108;28;20237;-65
2022/03/01 01:37:48;;;;;;;60.67;20.37;;;;;;;-3.15;70.29;102163.00;4192472;28;21351;-65
2022/03/01 01:40:20;;;;;;;60.33;21.13;;;;;;;-3.22;70.55;102162.19;4185869;28;20407;-65
2022/03/01 01:42:46;;;;;;;63.20;22.73;;;;;;;-3.26;71.22;102154.41;4181648;28;20264;-65
2022/03/01 01:45:13;;;;;;;65.30;22.63;;;;;;;-3.31;70.97;102154.44;4192512;28;21049;-65
2022/03/01 01:47:46;;;;;;;67.07;22.93;;;;;;;-3.32;71.37;102151.88;4185052;28;20224;-64
2022/03/01 01:50:14;;;;;;;65.20;23.23;;;;;;;-3.36;71.65;102158.84;4204717;28;20337;-66
2022/03/01 01:52:45;;;;;;;59.80;22.33;;;;;;;-3.42;71.83;102162.38;4186880;28;20307;-65
2022/03/01 01:55:12;;;;;;;61.07;21.80;;;;;;;-3.50;71.89;102166.75;4212110;28;20295;-65
2022/03/01 01:57:38;;;;;;;64.07;23.10;;;;;;;-3.54;72.11;102161.59;4183708;28;20468;-65
2022/03/01 02:00:06;;;;;;;64.23;21.47;;;;;;;-3.59;72.78;102172.03;4188744;28;20339;-65
2022/03/01 02:02:32;;;;;;;62.07;22.53;;;;;;;-3.73;73.95;102169.53;4190942;28;20347;-65
2022/03/01 02:04:59;;;;;;;59.03;20.77;;;;;;;-3.76;73.81;102160.91;4192433;28;20248;-65
2022/03/01 02:07:26;;;;;;;64.57;22.47;;;;;;;-3.80;74.60;102164.41;4197449;28;23051;-65
2022/03/01 02:09:52;;;;;;;63.90;21.60;;;;;;;-3.74;74.91;102161.78;4183603;28;20229;-66
2022/03/01 02:12:19;;;;;;;60.20;21.57;;;;;;;-3.75;74.86;102165.22;4208398;28;20239;-66
2022/03/01 02:14:45;;;;;;;57.83;21.23;;;;;;;-3.74;74.66;102156.56;4191742;28;20241;-65
2022/03/01 02:17:13;;;;;;;58.00;20.90;;;;;;;-3.75;74.76;102162.63;4193895;28;20310;-65
2022/03/01 02:19:46;;;;;;;58.33;22.23;;;;;;;-3.72;74.50;102153.06;4199368;28;20294;-66
2022/03/01 02:22:13;;;;;;;69.40;23.33;;;;;;;-3.75;73.98;102150.47;4188710;28;20259;-66
2022/03/01 02:24:40;;;;;;;65.33;22.43;;;;;;;-3.75;74.07;102149.63;4189425;28;20372;-66
2022/03/01 02:27:06;;;;;;;54.10;21.90;;;;;;;-3.74;74.42;102151.38;4194216;28;20285;-65
2022/03/01 02:29:33;;;;;;;66.10;22.90;;;;;;;-3.84;75.08;102146.22;4206050;28;26041;-67
2022/03/01 02:32:03;;;;;;;62.87;22.07;;;;;;;-4.05;76.65;102138.53;4190284;28;20241;-65
2022/03/01 02:34:31;;;;;;;61.50;21.03;;;;;;;-4.04;76.82;102141.16;4205932;28;20391;-67
2022/03/01 02:36:58;;;;;;;61.47;21.47;;;;;;;-3.99;76.63;102143.72;4207784;28;21659;-64
2022/03/01 02:39:25;;;;;;;60.90;22.00;;;;;;;-3.93;76.16;102138.50;4194805;28;22220;-65
2022/03/01 02:41:51;;;;;;;56.53;21.27;;;;;;;-3.81;75.63;102140.13;4197288;28;21813;-65
2022/03/01 02:44:18;;;;;;;58.33;22.30;;;;;;;-3.76;75.39;102142.69;4207411;28;20249;-64
2022/03/01 02:46:46;;;;;;;59.30;22.77;;;;;;;-3.85;75.41;102136.69;4200853;28;20259;-65
2022/03/01 02:49:13;;;;;;;59.97;22.53;;;;;;;-3.88;75.62;102136.72;4189327;28;22125;-64
2022/03/01 02:51:40;;;;;;;60.13;21.40;;;;;;;-3.92;75.76;102140.19;4186314;28;20284;-66
2022/03/01 02:54:07;;;;;;;69.10;22.60;;;;;;;-3.88;75.19;102139.31;4182536;28;20233;-65
2022/03/01 02:56:34;;;;;;;64.00;23.27;;;;;;;-3.84;75.50;102130.63;4208138;28;21079;-65
2022/03/01 02:59:01;;;;;;;71.70;25.07;;;;;;;-3.95;75.84;102129.81;4211699;28;20407;-65
2022/03/01 03:01:28;;;;;;;69.33;25.07;;;;;;;-4.01;76.24;102129.84;4200800;28;20234;-63
2022/03/01 03:03:55;;;;;;;77.67;24.87;;;;;;;-4.16;76.55;102130.84;4206487;28;20296;-65
2022/03/01 03:06:22;;;;;;;69.70;24.17;;;;;;;-4.17;76.78;102123.03;4194437;28;20563;-65
2022/03/01 03:08:49;;;;;;;69.37;24.37;;;;;;;-4.13;76.64;102129.94;4216233;28;20241;-65
2022/03/01 03:11:15;;;;;;;69.97;24.47;;;;;;;-4.14;76.29;102117.84;4199636;28;20292;-64
2022/03/01 03:13:42;;;;;;;73.30;24.40;;;;;;;-4.28;77.35;102116.16;4199728;28;20265;-66
2022/03/01 03:16:10;;;;;;;74.80;26.20;;;;;;;-4.31;77.18;102111.00;4197069;28;20296;-66
2022/03/01 03:18:38;;;;;;;81.07;26.23;;;;;;;-4.41;77.68;102109.31;4186245;28;20339;-66
2022/03/01 03:21:06;;;;;;;72.70;24.80;;;;;;;-4.54;78.47;102108.53;4182180;28;20778;-66
2022/03/01 03:23:33;;;;;;;80.03;26.40;;;;;;;-4.52;78.71;102105.91;4187056;28;21220;-67
2022/03/01 03:26:00;;;;;;;69.40;24.20;;;;;;;-4.55;78.49;102105.91;4173496;28;21505;-66
2022/03/01 03:28:26;;;;;;;71.87;23.77;;;;;;;-4.53;78.25;102105.03;4176608;28;20338;-65
2022/03/01 03:30:53;;;;;;;66.00;23.80;;;;;;;-4.60;78.73;102105.09;4199285;28;20230;-66
2022/03/01 03:33:20;;;;;;;71.13;24.33;;;;;;;-4.70;78.98;102107.72;4180493;28;20430;-65
2022/03/01 03:35:48;;;;;;;70.07;24.13;;;;;;;-4.55;78.66;102104.19;4189663;28;21670;-65
2022/03/01 03:38:15;;;;;;;73.17;23.53;;;;;;;-4.75;79.01;102098.22;4187550;28;20249;-66
2022/03/01 03:40:41;;;;;;;62.43;23.00;;;;;;;-4.78;79.35;102093.88;4184709;28;20237;-67
2022/03/01 03:43:08;;;;;;;74.53;24.97;;;;;;;-4.68;79.08;102094.75;4197603;28;20240;-65
2022/03/01 03:45:34;;;;;;;73.83;23.93;;;;;;;-4.75;78.90;102090.44;4197145;28;23593;-64
2022/03/01 03:48:01;;;;;;;75.67;24.53;;;;;;;-4.74;79.05;102097.34;4181448;28;20249;-66
2022/03/01 03:50:27;;;;;;;69.43;24.30;;;;;;;-4.86;79.66;102090.47;4194635;28;20237;-66
2022/03/01 03:52:54;;;;;;;65.00;23.77;;;;;;;-5.04;80.77;102081.00;4186769;28;20229;-66
2022/03/01 03:55:20;;;;;;;64.87;23.43;;;;;;;-5.01;81.62;102085.31;4184257;28;20239;-67
2022/03/01 03:57:47;;;;;;;69.67;25.30;;;;;;;-5.16;81.70;102081.06;4188241;28;20311;-66
2022/03/01 04:00:15;;;;;;;68.50;23.73;;;;;;;-5.03;81.10;102084.47;4196264;28;20297;-65
2022/03/01 04:02:43;;;;;;;77.50;25.23;;;;;;;-4.92;81.00;102087.88;4177918;28;23168;-65
2022/03/01 04:05:12;;;;;;;72.67;25.53;;;;;;;-5.14;81.92;102095.75;4185658;28;20311;-66
2022/03/01 04:07:40;;;;;;;68.53;23.70;;;;;;;-5.02;81.63;102094.00;4179449;28;20288;-64
2022/03/01 04:10:08;;;;;;;73.00;25.60;;;;;;;-5.03;81.57;102092.25;4196840;28;20240;-66
2022/03/01 04:12:35;;;;;;;73.20;27.10;;;;;;;-4.98;81.25;102090.53;4194226;28;20247;-65
2022/03/01 04:15:04;;;;;;;79.40;25.83;;;;;;;-5.08;81.40;102092.28;4183219;28;21334;-68
2022/03/01 04:17:30;;;;;;;73.87;26.17;;;;;;;-4.94;81.40;102094.81;4198806;28;20224;-64
2022/03/01 04:19:57;;;;;;;73.10;25.23;;;;;;;-5.00;81.33;102084.47;4205711;28;20237;-65
2022/03/01 04:22:24;;;;;;;70.07;24.50;;;;;;;-4.98;81.66;102090.53;4189381;28;22356;-66
2022/03/01 04:24:51;;;;;;;76.33;26.77;;;;;;;-4.97;81.05;102081.84;4205169;28;20383;-65
2022/03/01 04:27:18;;;;;;;81.43;28.00;;;;;;;-5.02;81.56;102078.41;4204772;28;20323;-66
2022/03/01 04:29:45;;;;;;;79.83;27.60;;;;;;;-4.98;81.56;102087.94;4190813;28;21508;-66
2022/03/01 04:32:12;;;;;;;79.90;26.50;;;;;;;-4.97;81.39;102085.31;4201782;28;21368;-65
2022/03/01 04:34:40;;;;;;;79.73;27.47;;;;;;;-4.96;81.51;102089.66;4214714;28;20387;-65
2022/03/01 04:37:08;;;;;;;74.10;26.00;;;;;;;-4.95;81.17;102078.38;4201931;28;20707;-65
2022/03/01 04:39:35;;;;;;;78.73;26.80;;;;;;;-5.03;81.78;102081.88;4199723;28;25589;-65
2022/03/01 04:42:04;;;;;;;80.93;26.23;;;;;;;-5.08;82.47;102079.31;4184238;28;20253;-66
2022/03/01 04:44:35;;;;;;;74.27;26.07;;;;;;;-5.06;82.75;102076.69;4185179;28;20286;-66
2022/03/01 04:47:03;;;;;;;68.23;25.47;;;;;;;-5.10;82.48;102076.72;4217646;28;20233;-65
2022/03/01 04:49:30;;;;;;;72.03;26.47;;;;;;;-5.07;82.25;102080.19;4194893;28;20462;-64
2022/03/01 04:51:56;;;;;;;75.87;26.20;;;;;;;-5.12;82.25;102078.44;4189702;28;20703;-67
2022/03/01 04:54:23;;;;;;;86.10;27.90;;;;;;;-5.11;82.88;102072.38;4201609;28;20232;-65
2022/03/01 04:56:49;;;;;;;76.23;27.57;;;;;;;-5.10;82.93;102066.34;4189936;28;20310;-65
2022/03/01 04:59:16;;;;;;;77.90;27.53;;;;;;;-5.02;82.84;102070.63;4202309;28;21037;-65
2022/03/01 05:01:43;;;;;;;86.37;28.37;;;;;;;-5.03;82.63;102067.19;4188218;28;20238;-65
2022/03/01 05:04:10;;;;;;;83.13;28.00;;;;;;;-5.00;82.38;102067.16;4192716;28;20233;-66
2022/03/01 05:06:37;;;;;;;78.37;28.10;;;;;;;-5.03;82.73;102071.47;4196928;28;20426;-65
2022/03/01 05:09:04;;;;;;;94.90;27.90;;;;;;;-5.07;82.66;102070.66;4198205;28;20240;-65
2022/03/01 05:11:32;;;;;;;86.70;29.07;;;;;;;-5.07;82.90;102067.19;4219269;28;21470;-65
2022/03/01 05:13:59;;;;;;;75.33;27.33;;;;;;;-5.15;83.10;102073.28;4224345;28;23017;-65
2022/03/01 05:16:26;;;;;;;85.90;29.70;;;;;;;-5.07;82.74;102077.56;4206004;28;20590;-66
2022/03/01 05:18:53;;;;;;;93.00;30.93;;;;;;;-5.17;83.28;102067.22;4217878;28;23281;-65
2022/03/01 05:21:19;;;;;;;87.57;30.93;;;;;;;-5.33;83.80;102075.91;4212899;28;20517;-65
2022/03/01 05:23:46;;;;;;;86.03;31.20;;;;;;;-5.24;83.96;102073.31;4198425;28;20228;-71
2022/03/01 05:26:14;;;;;;;83.80;28.43;;;;;;;-5.14;83.88;102069.81;4193954;28;22049;-70
2022/03/01 05:28:40;;;;;;;90.87;29.10;;;;;;;-5.01;83.07;102075.84;4200767;28;20229;-70
2022/03/01 05:31:07;;;;;;;76.33;28.33;;;;;;;-5.11;83.49;102072.38;4207168;28;20241;-69
2022/03/01 05:33:33;;;;;;;86.30;29.37;;;;;;;-5.06;83.24;102069.75;4185588;28;20237;-70
2022/03/01 05:36:00;;;;;;;88.67;29.67;;;;;;;-5.16;83.93;102063.75;4213360;28;21526;-69
2022/03/01 05:38:26;;;;;;;85.03;29.33;;;;;;;-5.11;83.93;102069.78;4198707;28;20237;-69
2022/03/01 05:40:53;;;;;;;92.70;31.93;;;;;;;-5.13;83.77;102070.66;4199089;28;22308;-72
2022/03/01 05:43:20;;;;;;;86.27;31.07;;;;;;;-5.19;84.08;102071.56;4206749;28;20294;-72
2022/03/01 05:45:46;;;;;;;90.93;32.90;;;;;;;-5.11;84.02;102074.13;4188109;28;21862;-68
2022/03/01 05:48:14;;;;;;;77.00;30.13;;;;;;;-5.00;83.86;102079.28;4196279;28;22111;-68
2022/03/01 05:50:43;;;;;;;90.77;31.93;;;;;;;-5.05;83.94;102076.69;4212070;28;20246;-69
2022/03/01 05:53:10;;;;;;;84.27;32.10;;;;;;;-4.94;83.87;102074.94;4182509;28;21861;-70
2022/03/01 05:55:36;;;;;;;83.40;29.53;;;;;;;-5.00;83.92;102074.09;4186073;28;20308;-70
2022/03/01 05:58:03;;;;;;;117.50;39.73;;;;;;;-5.14;85.28;102074.13;4186351;28;20606;-70
2022/03/01 06:00:29;;;;;;;111.70;39.20;;;;;;;-5.17;86.30;102067.22;4211286;28;21258;-72
2022/03/01 06:02:56;;;;;;;106.03;35.37;;;;;;;-5.11;86.00;102071.53;4199328;28;20391;-68
2022/03/01 06:05:28;;;;;;;96.07;32.43;;;;;;;-4.89;85.53;102072.31;4185041;28;22586;-70
2022/03/01 06:07:58;;;;;;;94.50;33.93;;;;;;;-4.93;85.72;102068.88;4169028;28;20437;-69
2022/03/01 06:10:25;;;;;;;87.60;30.47;;;;;;;-4.80;85.16;102074.88;4184734;28;20878;-70
2022/03/01 06:12:52;;;;;;;100.70;33.63;;;;;;;-4.73;85.11;102071.38;4206625;28;20738;-70
2022/03/01 06:15:19;;;;;;;90.17;32.40;;;;;;;-4.62;84.70;102073.06;4189053;28;20251;-70
2022/03/01 06:17:45;;;;;;;82.53;30.03;;;;;;;-4.50;84.26;102078.19;4195312;28;23672;-70
2022/03/01 06:20:12;;;;;;;99.30;31.33;;;;;;;-4.41;83.85;102069.47;4206670;28;20913;-69
2022/03/01 06:22:39;;;;;;;88.53;31.97;;;;;;;-4.44;83.96;102072.09;4190461;28;20357;-71
2022/03/01 06:25:08;;;;;;;92.00;31.93;;;;;;;-4.50;84.26;102072.97;4205350;28;20516;-71
2022/03/01 06:27:36;;;;;;;85.87;31.33;;;;;;;-4.47;84.41;102066.03;4202504;28;20730;-72
2022/03/01 06:30:06;;;;;;;98.60;32.63;;;;;;;-4.39;84.46;102075.53;4180115;28;20233;-73
2022/03/01 06:32:33;;;;;;;85.57;31.97;;;;;;;-4.36;84.46;102063.38;4198683;28;20247;-73
2022/03/01 06:35:00;;;;;;;92.20;33.23;;;;;;;-4.23;84.05;102063.31;4200909;28;20245;-75
2022/03/01 06:37:40;;;;;;;101.73;37.07;;;;;;;-4.07;83.41;102070.97;4206580;28;20232;-76
2022/03/01 06:40:07;;;;;;;81.57;30.77;;;;;;;-3.90;83.40;102065.63;4206819;28;23671;-73
2022/03/01 06:42:34;;;;;;;92.80;32.50;;;;;;;-3.81;82.09;102067.31;4206781;28;20267;-72
2022/03/01 06:45:01;;;;;;;74.77;27.33;;;;;;;-3.70;81.15;102069.81;4212909;28;20243;-74
2022/03/01 06:47:28;;;;;;;77.50;26.73;;;;;;;-3.59;78.88;102070.56;4223144;28;22307;-71
2022/03/01 06:49:55;;;;;;;71.27;27.63;;;;;;;-3.40;77.99;102069.50;4169731;28;20852;-73
2022/03/01 06:52:21;;;;;;;72.47;25.97;;;;;;;-3.29;77.41;102068.56;4214087;28;20239;-77
2022/03/01 06:54:48;;;;;;;76.37;27.40;;;;;;;-3.17;76.42;102068.41;4210102;28;20312;-74
2022/03/01 06:57:16;;;;;;;71.80;25.03;;;;;;;-3.13;75.21;102070.09;4187595;28;20237;-75
2022/03/01 06:59:42;;;;;;;62.10;22.47;;;;;;;-3.07;74.36;102067.41;4194218;28;20311;-74
2022/03/01 07:02:09;;;;;;;62.57;23.17;;;;;;;-2.91;72.63;102070.72;4235329;28;20302;-78
2022/03/01 07:04:36;;;;;;;64.13;22.40;;;;;;;-2.89;71.13;102062.88;4211098;28;20338;-75
2022/03/01 07:07:03;;;;;;;66.77;23.43;;;;;;;-2.64;70.54;102073.88;4231921;28;21264;-77
2022/03/01 07:09:29;;;;;;;58.80;22.13;;;;;;;-2.49;69.40;102078.00;4211531;28;20255;-77
2022/03/01 07:11:56;;;;;;;60.27;20.17;;;;;;;-2.45;68.82;102070.13;4220415;28;20350;-74
2022/03/01 07:14:23;;;;;;;58.17;20.77;;;;;;;-2.36;68.52;102069.13;4184157;28;20241;-75
2022/03/01 07:16:50;;;;;;;48.60;18.23;;;;;;;-2.13;68.19;102072.25;4212059;28;21518;-74
2022/03/01 07:19:16;;;;;;;53.83;18.43;;;;;;;-2.12;67.21;102071.34;4200117;28;20981;-75
2022/03/01 07:21:43;;;;;;;50.70;16.93;;;;;;;-1.89;64.71;102062.31;4202355;28;20232;-73
2022/03/01 07:24:10;;;;;;;47.97;17.07;;;;;;;-1.70;63.04;102061.13;4209604;28;20320;-73
2022/03/01 07:26:36;;;;;;;44.83;16.60;;;;;;;-1.57;61.99;102066.09;4207119;28;20240;-75
2022/03/01 07:29:03;;;;;;;46.90;16.23;;;;;;;-1.44;61.68;102065.00;4256934;28;20260;-76
2022/03/01 07:31:30;;;;;;;43.47;17.27;;;;;;;-1.36;61.29;102060.53;4192843;28;23813;-76
2022/03/01 07:33:56;;;;;;;38.73;15.83;;;;;;;-1.29;60.96;102054.28;4215486;28;20262;-75
2022/03/01 07:36:24;;;;;;;46.97;16.90;;;;;;;-1.17;59.85;102060.16;4226019;28;20245;-73
2022/03/01 07:38:51;;;;;;;41.17;15.70;;;;;;;-0.94;57.79;102065.78;4255348;28;20232;-74
2022/03/01 07:41:17;;;;;;;44.00;14.40;;;;;;;-0.82;58.03;102062.09;4240891;28;20274;-73
2022/03/01 07:43:46;;;;;;;38.90;14.67;;;;;;;-0.72;57.59;102065.34;4226848;28;20770;-74
2022/03/01 07:46:15;;;;;;;44.97;15.87;;;;;;;-0.65;57.51;102070.41;4309473;28;20383;-72
2022/03/01 07:48:42;;;;;;;41.50;15.87;;;;;;;-0.58;57.84;102067.69;4224607;28;20299;-72
2022/03/01 07:51:10;;;;;;;42.73;14.80;;;;;;;-0.39;59.91;102062.91;4240029;28;22645;-72
2022/03/01 07:53:36;;;;;;;44.57;14.83;;;;;;;0.35;55.45;102065.47;4215531;28;20240;-72
2022/03/01 07:56:03;;;;;;;46.13;13.73;;;;;;;1.49;51.14;102080.66;4221411;28;20263;-77
2022/03/01 07:58:30;;;;;;;36.73;11.87;;;;;;;3.97;43.66;102086.00;4206532;28;20236;-74
2022/03/01 08:00:57;;;;;;;26.93;10.60;;;;;;;6.72;36.15;102103.34;4216139;28;20234;-72
2022/03/01 08:03:24;;;;;;;31.77;10.80;;;;;;;9.04;30.91;102111.56;4227913;28;20243;-73
2022/03/01 08:05:52;;;;;;;22.80;9.63;;;;;;;11.32;26.85;102124.09;4224724;28;21157;-74
2022/03/01 08:08:18;;;;;;;26.10;9.87;;;;;;;13.15;23.85;102131.06;4229072;28;20239;-73
2022/03/01 08:10:45;;;;;;;22.90;10.00;;;;;;;12.97;23.51;102131.53;4226701;28;20243;-73
2022/03/01 08:13:33;;;;;;;24.33;10.40;;;;;;;15.74;21.19;102143.44;4219125;28;20255;-74
2022/03/01 08:16:02;;;;;;;23.83;10.20;;;;;;;17.86;17.13;102148.72;4219553;28;20251;-72
2022/03/01 08:18:28;;;;;;;23.30;9.63;;;;;;;16.23;17.29;102136.31;4218234;28;20419;-70
2022/03/01 08:20:57;;;;;;;22.60;9.40;;;;;;;14.23;19.18;102121.44;4222866;28;20323;-71
2022/03/01 08:23:25;;;;;;;23.80;9.93;;;;;;;13.18;20.33;102112.09;4181166;28;20230;-72
2022/03/01 08:25:51;;;;;;;20.53;9.50;;;;;;;14.45;19.63;102123.19;4220147;28;21775;-72
2022/03/01 08:28:18;;;;;;;21.57;9.93;;;;;;;14.14;20.02;102111.50;4246810;28;20316;-71
2022/03/01 08:30:46;;;;;;;23.67;9.57;;;;;;;14.19;19.56;102119.16;4239114;28;20936;-72
2022/03/01 08:33:16;;;;;;;24.13;9.97;;;;;;;14.02;19.90;102120.56;4280019;28;20397;-75
2022/03/01 08:35:42;;;;;;;20.40;9.40;;;;;;;16.24;18.55;102128.09;4217590;28;20232;-76
2022/03/01 08:38:09;;;;;;;24.83;10.00;;;;;;;16.27;17.83;102132.34;4190847;28;20245;-72
2022/03/01 08:40:40;;;;;;;22.87;11.03;;;;;;;18.04;16.29;102139.81;4192441;28;20241;-72
2022/03/01 08:43:09;;;;;;;25.17;9.87;;;;;;;17.26;16.02;102132.09;4215337;28;21077;-71
2022/03/01 08:45:36;;;;;;;29.33;10.70;;;;;;;16.19;17.70;102130.38;4206163;28;20232;-72
2022/03/01 08:48:03;;;;;;;21.27;10.10;;;;;;;15.19;18.12;102119.59;4246589;28;20248;-73
2022/03/01 08:50:31;;;;;;;24.03;11.27;;;;;;;14.98;19.36;102112.47;4221389;28;20236;-74
2022/03/01 08:53:15;;;;;;;23.10;10.87;;;;;;;17.18;17.48;102124.75;4257997;28;20243;-74
2022/03/01 08:55:41;;;;;;;26.87;10.33;;;;;;;17.48;16.38;102117.41;4235189;28;21385;-74
2022/03/01 08:58:08;;;;;;;24.30;9.83;;;;;;;18.93;15.68;102115.47;4230016;28;20244;-77
2022/03/01 09:00:35;;;;;;;22.03;9.43;;;;;;;18.55;16.06;102119.41;4285495;28;20236;-74
2022/03/01 09:03:03;;;;;;;23.13;10.70;;;;;;;19.45;14.17;102119.13;4280385;28;20241;-75
2022/03/01 09:05:32;;;;;;;34.00;11.33;;;;;;;16.46;16.60;102104.66;4262743;28;20403;-72
2022/03/01 09:07:58;;;;;;;24.60;10.97;;;;;;;13.14;20.05;102089.28;4237527;28;20263;-73
2022/03/01 09:10:25;;;;;;;19.90;9.53;;;;;;;12.42;21.01;102077.00;4252106;28;20228;-72
2022/03/01 09:12:53;;;;;;;22.53;9.10;;;;;;;11.17;23.31;102074.56;4235118;28;22896;-70
2022/03/01 09:15:20;;;;;;;24.03;9.67;;;;;;;9.69;25.51;102063.22;4217210;28;20231;-75
2022/03/01 09:17:50;;;;;;;24.73;9.70;;;;;;;7.96;28.97;102050.72;4231629;28;20240;-42
2022/03/01 09:20:17;;;;;;;21.50;8.23;;;;;;;6.99;30.49;102049.91;4249282;28;20240;-54
2022/03/01 09:22:44;;;;;;;21.20;8.10;;;;;;;5.50;32.57;102034.44;4201100;28;20224;-74
2022/03/01 09:25:11;;;;;;;14.67;6.93;;;;;;;4.92;33.93;102029.22;4220062;28;20316;-74
2022/03/01 09:27:38;;;;;;;14.87;6.67;;;;;;;4.94;33.51;102027.38;4205285;28;20245;-73
2022/03/01 09:30:05;;;;;;;15.53;7.17;;;;;;;4.54;34.79;102023.88;4234950;28;20234;-73
2022/03/01 09:32:32;;;;;;;17.63;6.77;;;;;;;4.17;35.43;102027.22;4224332;28;22251;-73
2022/03/01 09:34:58;;;;;;;11.83;5.60;;;;;;;3.62;36.15;102030.31;4215032;28;20304;-73
2022/03/01 09:37:25;;;;;;;16.40;6.10;;;;;;;3.40;37.36;102019.78;4240195;28;20239;-75
2022/03/01 09:39:55;;;;;;;14.20;6.60;;;;;;;3.77;37.27;102021.81;4268207;28;21850;-73
2022/03/01 09:42:21;;;;;;;15.07;5.43;;;;;;;3.74;37.21;102014.03;4188498;28;21059;-73
2022/03/01 09:44:49;;;;;;;19.13;6.00;;;;;;;3.33;37.87;102026.22;4251542;28;25034;-71
2022/03/01 09:47:17;;;;;;;12.57;5.07;;;;;;;3.23;37.95;102017.81;4230729;28;20867;-72
2022/03/01 09:49:43;;;;;;;11.27;5.37;;;;;;;3.61;38.02;102007.56;4293504;28;20247;-74
2022/03/01 09:52:15;;;;;;;14.10;5.20;;;;;;;4.08;36.74;102007.38;4337005;28;22608;-74
2022/03/01 09:54:42;;;;;;;18.07;5.90;;;;;;;4.12;36.66;102006.34;4281268;28;20231;-74
2022/03/01 09:57:13;;;;;;;16.83;7.17;;;;;;;3.79;37.61;101990.16;4265235;28;20233;-74
2022/03/01 09:59:39;;;;;;;19.57;6.57;;;;;;;4.04;36.72;101989.13;4253981;28;20233;-73
2022/03/01 10:02:07;;;;;;;15.90;5.97;;;;;;;3.70;37.74;101987.88;4239189;28;20251;-74
2022/03/01 10:04:53;;;;;;;17.07;5.73;;;;;;;3.90;37.49;101981.81;4284121;28;20298;-74
2022/03/01 10:07:42;;;;;;;17.20;6.10;;;;;;;3.97;36.52;101984.13;4213220;28;20479;-76
2022/03/01 10:10:16;;;;;;;16.10;5.80;;;;;;;4.34;36.75;101979.06;4223083;28;20226;-75
2022/03/01 10:12:44;;;;;;;10.83;5.33;;;;;;;4.25;35.28;101976.84;4274546;28;20306;-72
2022/03/01 10:15:13;;;;;;;13.47;5.53;;;;;;;4.31;35.91;101971.28;4210526;28;20311;-75
2022/03/01 10:17:43;;;;;;;10.73;4.97;;;;;;;4.40;35.05;101970.88;4272924;28;21335;-72
2022/03/01 10:20:18;;;;;;;14.33;4.63;;;;;;;4.68;35.22;101967.03;4261559;28;21264;-71
2022/03/01 10:22:52;;;;;;;10.33;3.83;;;;;;;4.94;33.82;101964.06;4211563;28;20492;-71
2022/03/01 10:25:21;;;;;;;13.53;4.77;;;;;;;5.14;33.02;101954.34;4248926;28;20232;-72
2022/03/01 10:27:52;;;;;;;9.90;4.10;;;;;;;5.13;33.06;101948.22;4228347;28;20236;-71
2022/03/01 10:30:23;;;;;;;12.10;4.13;;;;;;;4.82;33.63;101940.88;4268253;28;20831;-68
2022/03/01 10:32:51;;;;;;;11.53;3.50;;;;;;;5.06;33.77;101938.91;4218012;28;20870;-71
2022/03/01 10:35:17;;;;;;;9.00;3.73;;;;;;;4.87;33.33;101938.91;4236433;28;21834;-71
2022/03/01 10:37:44;;;;;;;7.73;3.40;;;;;;;5.06;33.50;101942.38;4280490;28;20224;-77
2022/03/01 10:40:23;;;;;;;8.47;3.60;;;;;;;4.94;32.55;101934.16;4224535;28;22933;-70
2022/03/01 10:43:09;;;;;;;12.57;4.00;;;;;;;4.36;34.20;101933.28;4213159;28;20319;-70
2022/03/01 10:45:43;;;;;;;10.10;4.30;;;;;;;4.26;33.89;101929.34;4217161;28;20268;-74
2022/03/01 10:48:12;;;;;;;7.97;3.47;;;;;;;4.41;33.92;101928.66;4198986;28;20698;-74
2022/03/01 10:50:39;;;;;;;11.10;3.90;;;;;;;4.07;35.13;101921.38;4245101;28;20618;-67
2022/03/01 10:53:06;;;;;;;10.43;3.67;;;;;;;4.18;34.79;101927.03;4233483;28;20335;-74
2022/03/01 10:55:35;;;;;;;7.93;2.90;;;;;;;4.39;33.22;101917.31;4209661;28;20232;-74
2022/03/01 10:58:10;;;;;;;8.47;3.00;;;;;;;4.42;32.46;101916.31;4215309;28;20246;-74
2022/03/01 11:00:38;;;;;;;11.73;3.40;;;;;;;4.35;32.78;101914.88;4223219;28;20227;-71
2022/03/01 11:03:06;;;;;;;8.43;3.23;;;;;;;4.11;33.19;101912.41;4205037;28;20238;-72
2022/03/01 11:05:33;;;;;;;7.13;3.27;;;;;;;4.21;33.63;101908.47;4191200;28;20235;-72
2022/03/01 11:08:25;;;;;;;7.80;3.30;;;;;;;4.33;33.95;101906.19;4191562;28;20231;-69
2022/03/01 11:10:53;;;;;;;7.47;3.33;;;;;;;4.46;33.04;101907.34;4196510;28;20344;-75
2022/03/01 11:13:20;;;;;;;7.93;3.70;;;;;;;4.18;33.29;101894.56;4211425;28;20236;-74
2022/03/01 11:15:54;;;;;;;12.47;4.17;;;;;;;4.21;33.83;101892.66;4194034;28;20270;-75